createdAt,value
2017-04-21T00:00:53.088Z,64.6
2017-04-21T00:01:54.919Z,64.6
2017-04-21T00:02:56.718Z,64.4
2017-04-21T00:03:58.518Z,64.9
2017-04-21T00:05:00.790Z,65
2017-04-21T00:06:02.622Z,65.3
2017-04-21T00:07:04.431Z,65
2017-04-21T00:08:06.603Z,64.7
2017-04-21T00:09:08.417Z,64.6
2017-04-21T00:10:10.217Z,64.9
2017-04-21T00:11:12.071Z,65.2
2017-04-21T00:12:13.951Z,65.2
2017-04-21T00:13:15.777Z,65.6
2017-04-21T00:14:17.577Z,65.8
2017-04-21T00:15:19.387Z,65.6
2017-04-21T00:16:21.375Z,65.7
2017-04-21T00:17:23.195Z,65.7
2017-04-21T00:18:25.018Z,66.1
2017-04-21T00:19:26.824Z,66.3
2017-04-21T00:20:28.958Z,66.4
2017-04-21T00:21:30.757Z,66
2017-04-21T00:22:32.555Z,66.1
2017-04-21T00:23:34.356Z,65.9
2017-04-21T00:24:36.159Z,66.2
2017-04-21T00:25:37.979Z,65.6
2017-04-21T00:26:40.114Z,65.7
2017-04-21T00:27:42.102Z,66.2
2017-04-21T00:28:44.611Z,66.2
2017-04-21T00:29:46.470Z,66.2
2017-04-21T00:30:48.291Z,66.3
2017-04-21T00:31:50.093Z,66.6
2017-04-21T00:32:51.909Z,66.3
2017-04-21T00:33:53.741Z,66.1
2017-04-21T00:34:55.539Z,66.1
2017-04-21T00:35:57.358Z,66.7
2017-04-21T00:36:59.154Z,66.6
2017-04-21T00:38:01.454Z,66.2
2017-04-21T00:39:03.802Z,66.2
2017-04-21T00:40:05.655Z,66.2
2017-04-21T00:41:07.449Z,66.3
2017-04-21T00:42:09.265Z,66.2
2017-04-21T00:43:11.060Z,66.5
2017-04-21T00:44:13.209Z,66.7
2017-04-21T00:45:15.057Z,66.7
2017-04-21T00:46:16.881Z,66.9
2017-04-21T00:47:18.679Z,67.2
2017-04-21T00:48:20.821Z,67.2
2017-04-21T00:49:22.623Z,67.1
2017-04-21T00:50:24.625Z,67.5
2017-04-21T00:51:26.433Z,67.9
2017-04-21T00:52:28.236Z,67.6
2017-04-21T00:53:30.034Z,68.1
2017-04-21T00:54:32.184Z,68.2
2017-04-21T00:55:34.337Z,68.2
2017-04-21T00:56:36.138Z,68.3
2017-04-21T00:57:38.320Z,68.2
2017-04-21T00:58:40.122Z,68.2
2017-04-21T00:59:41.925Z,68.4
2017-04-21T01:00:43.725Z,68.8
2017-04-21T01:01:45.531Z,68.4
2017-04-21T01:02:47.563Z,68.7
2017-04-21T01:03:49.366Z,69.6
2017-04-21T01:04:51.507Z,69.6
2017-04-21T01:05:53.304Z,69.5
2017-04-21T01:06:55.102Z,69.4
2017-04-21T01:07:56.909Z,69.5
2017-04-21T01:08:58.710Z,69.4
2017-04-21T01:10:00.528Z,69.5
2017-04-21T01:11:02.330Z,69.5
2017-04-21T01:12:04.436Z,69.7
2017-04-21T01:13:06.430Z,69.5
2017-04-21T01:14:08.234Z,69.3
2017-04-21T01:15:10.039Z,69.1
2017-04-21T01:16:11.841Z,69.5
2017-04-21T01:18:31.211Z,70
2017-04-21T01:19:33.385Z,70.1
2017-04-21T01:20:35.198Z,70.3
2017-04-21T01:21:37.008Z,70.1
2017-04-21T01:22:38.807Z,70.5
2017-04-21T01:23:40.995Z,70.7
2017-04-21T01:24:42.800Z,70.9
2017-04-21T01:25:44.657Z,71.2
2017-04-21T01:26:46.650Z,70.8
2017-04-21T01:27:48.555Z,70.6
2017-04-21T01:28:50.353Z,71.3
2017-04-21T01:29:52.155Z,70.9
2017-04-21T01:30:53.961Z,71
2017-04-21T01:31:55.763Z,71.1
2017-04-21T01:32:57.605Z,71.1
2017-04-21T01:33:59.794Z,71.2
2017-04-21T01:35:02.343Z,71.6
2017-04-21T01:36:04.477Z,71.6
2017-04-21T01:37:06.297Z,71.4
2017-04-21T01:38:08.306Z,71.7
2017-04-21T01:39:10.497Z,72
2017-04-21T01:40:12.302Z,72.1
2017-04-21T01:41:14.106Z,72.3
2017-04-21T01:42:15.912Z,71.9
2017-04-21T01:43:17.714Z,72.2
2017-04-21T01:44:19.884Z,72.4
2017-04-21T01:45:21.688Z,72.4
2017-04-21T01:46:23.541Z,72.4
2017-04-21T01:47:25.431Z,72.5
2017-04-21T01:48:27.239Z,72.6
2017-04-21T01:49:29.055Z,72.5
2017-04-21T01:50:30.856Z,72.6
2017-04-21T01:51:32.657Z,72.3
2017-04-21T01:52:34.831Z,72.5
2017-04-21T01:53:37.308Z,72.2
2017-04-21T01:54:39.969Z,72.5
2017-04-21T01:55:42.393Z,73.1
2017-04-21T01:56:44.201Z,73.2
2017-04-21T01:57:46.003Z,72.7
2017-04-21T01:58:48.175Z,72.8
2017-04-21T01:59:49.997Z,73.3
2017-04-21T02:00:52.177Z,73.5
2017-04-21T02:01:54.025Z,73.6
2017-04-21T02:02:55.952Z,73.3
2017-04-21T02:03:57.793Z,73.2
2017-04-21T02:05:00.265Z,73.6
2017-04-21T02:06:02.122Z,73.4
2017-04-21T02:07:03.956Z,73.5
2017-04-21T02:08:05.760Z,73.4
2017-04-21T02:09:08.438Z,73.5
2017-04-21T02:10:10.613Z,73.8
2017-04-21T02:11:12.827Z,73.8
2017-04-21T02:12:14.629Z,74
2017-04-21T02:13:16.490Z,73.5
2017-04-21T02:14:18.919Z,73.6
2017-04-21T02:15:20.809Z,73.6
2017-04-21T02:16:22.853Z,73.9
2017-04-21T02:17:25.315Z,73.4
2017-04-21T02:18:27.118Z,73.8
2017-04-21T02:19:28.917Z,74.3
2017-04-21T02:20:30.715Z,74.3
2017-04-21T02:21:32.514Z,74.5
2017-04-21T02:22:34.691Z,74.6
2017-04-21T02:23:36.829Z,74.7
2017-04-21T02:24:38.967Z,75.1
2017-04-21T02:25:41.371Z,74.7
2017-04-21T02:26:43.262Z,74.6
2017-04-21T02:28:33.336Z,74.6
2017-04-21T02:29:35.222Z,75.2
2017-04-21T02:30:37.035Z,75.4
2017-04-21T02:31:38.835Z,74.8
2017-04-21T02:32:40.635Z,74.9
2017-04-21T02:33:42.457Z,75.4
2017-04-21T02:34:44.959Z,75.8
2017-04-21T02:35:46.779Z,75.4
2017-04-21T02:36:48.612Z,75.7
2017-04-21T02:37:51.086Z,75.8
2017-04-21T02:38:53.712Z,75.9
2017-04-21T02:39:55.563Z,75.9
2017-04-21T02:40:57.392Z,75.5
2017-04-21T02:41:59.209Z,75.1
2017-04-21T02:43:01.004Z,75.5
2017-04-21T02:44:02.811Z,75.7
2017-04-21T02:45:04.953Z,76
2017-04-21T02:46:06.761Z,75.8
2017-04-21T02:47:08.565Z,75.6
2017-04-21T02:48:10.364Z,76
2017-04-21T02:49:12.551Z,75.9
2017-04-21T02:50:14.358Z,75.9
2017-04-21T02:51:16.537Z,75.9
2017-04-21T02:52:18.340Z,75.2
2017-04-21T02:53:20.156Z,75.5
2017-04-21T02:54:22.237Z,75.9
2017-04-21T02:55:24.603Z,76.3
2017-04-21T02:56:26.873Z,76.2
2017-04-21T02:57:29.036Z,75.9
2017-04-21T02:58:31.131Z,76.2
2017-04-21T02:59:33.309Z,76.3
2017-04-21T03:00:35.136Z,76.2
2017-04-21T03:01:36.953Z,76.3
2017-04-21T03:02:39.101Z,76.5
2017-04-21T03:03:40.953Z,76.3
2017-04-21T03:04:43.154Z,76.5
2017-04-21T03:05:45.015Z,76.7
2017-04-21T03:06:46.842Z,76.4
2017-04-21T03:07:48.650Z,76.6
2017-04-21T03:08:50.937Z,76.7
2017-04-21T03:09:52.802Z,77
2017-04-21T03:10:54.628Z,76.7
2017-04-21T03:11:56.436Z,76.7
2017-04-21T03:12:58.586Z,77.2
2017-04-21T03:14:00.421Z,77.1
2017-04-21T03:15:02.224Z,77.2
2017-04-21T03:16:04.389Z,77.6
2017-04-21T03:17:06.187Z,77.6
2017-04-21T03:18:08.020Z,77.4
2017-04-21T03:19:10.159Z,77.6
2017-04-21T03:20:12.693Z,77.6
2017-04-21T03:21:14.649Z,77.4
2017-04-21T03:22:16.451Z,77.3
2017-04-21T03:23:18.253Z,77.6
2017-04-21T03:24:20.106Z,77.6
2017-04-21T03:25:21.967Z,77.9
2017-04-21T03:26:24.103Z,77.8
2017-04-21T03:27:26.353Z,77.6
2017-04-21T03:28:28.896Z,77.4
2017-04-21T03:29:30.732Z,77.9
2017-04-21T03:30:32.529Z,78
2017-04-21T03:31:34.717Z,77.9
2017-04-21T03:32:36.941Z,78.1
2017-04-21T03:33:38.750Z,78.2
2017-04-21T03:34:40.550Z,78.4
2017-04-21T03:35:42.346Z,78.4
2017-04-21T03:36:44.151Z,78.7
2017-04-21T03:37:45.949Z,78.2
2017-04-21T03:38:48.099Z,78.1
2017-04-21T03:39:50.293Z,78.4
2017-04-21T03:40:52.092Z,78.7
2017-04-21T03:41:53.960Z,78.5
2017-04-21T03:42:55.827Z,78.6
2017-04-21T03:43:58.147Z,78.6
2017-04-21T03:45:00.262Z,78.9
2017-04-21T03:46:02.061Z,78.9
2017-04-21T03:47:04.367Z,79.2
2017-04-21T03:48:06.228Z,79.6
2017-04-21T03:49:08.019Z,79.3
2017-04-21T03:50:09.855Z,79.6
2017-04-21T03:51:12.007Z,80.1
2017-04-21T03:52:14.415Z,79.7
2017-04-21T03:53:16.611Z,79.4
2017-04-21T03:54:19.352Z,79.6
2017-04-21T03:55:21.246Z,80
2017-04-21T03:56:23.189Z,79.8
2017-04-21T03:57:25.392Z,79.5
2017-04-21T03:58:27.205Z,79.5
2017-04-21T03:59:29.009Z,79.4
2017-04-21T04:00:30.808Z,79.2
2017-04-21T04:01:32.610Z,79.6
2017-04-21T04:02:34.749Z,79.7
2017-04-21T04:03:36.907Z,80.2
2017-04-21T04:04:38.776Z,81.1
2017-04-21T04:05:40.579Z,80.9
2017-04-21T04:06:42.455Z,81.1
2017-04-21T04:07:44.256Z,81
2017-04-21T04:08:46.119Z,81.1
2017-04-21T04:09:47.988Z,80.9
2017-04-21T04:10:49.808Z,80.7
2017-04-21T04:11:51.606Z,80.7
2017-04-21T04:12:53.414Z,80.7
2017-04-21T04:13:55.309Z,81
2017-04-21T04:14:57.436Z,80.7
2017-04-21T04:15:59.301Z,81
2017-04-21T04:17:01.096Z,81
2017-04-21T04:18:02.919Z,80.2
2017-04-21T04:19:05.059Z,80.1
2017-04-21T04:20:06.913Z,80.9
2017-04-21T04:21:08.715Z,81.1
2017-04-21T04:22:10.519Z,81
2017-04-21T04:23:12.362Z,81.2
2017-04-21T04:24:14.170Z,80.8
2017-04-21T04:25:16.040Z,80.8
2017-04-21T04:26:17.882Z,81
2017-04-21T04:27:19.679Z,81.1
2017-04-21T04:28:21.488Z,81.5
2017-04-21T04:29:23.285Z,81.7
2017-04-21T04:30:25.271Z,82.1
2017-04-21T04:31:27.066Z,82.4
2017-04-21T04:32:29.240Z,82.4
2017-04-21T04:33:31.044Z,81.6
2017-04-21T04:34:32.845Z,81.5
2017-04-21T04:35:34.982Z,82.3
2017-04-21T04:36:37.193Z,82.4
2017-04-21T04:37:38.997Z,82.2
2017-04-21T04:38:40.822Z,82.3
2017-04-21T04:39:42.621Z,82.4
2017-04-21T04:40:44.423Z,82.2
2017-04-21T04:41:46.806Z,82.1
2017-04-21T04:42:48.902Z,81.9
2017-04-21T04:43:51.685Z,82
2017-04-21T04:44:53.903Z,82.2
2017-04-21T04:45:55.775Z,82.8
2017-04-21T04:46:57.575Z,83
2017-04-21T04:47:59.374Z,82.7
2017-04-21T04:49:01.173Z,83.3
2017-04-21T04:50:02.985Z,84.3
2017-04-21T04:51:05.143Z,84.7
2017-04-21T04:52:06.947Z,83.8
2017-04-21T04:53:08.822Z,83.4
2017-04-21T04:54:10.838Z,84.2
2017-04-21T04:55:13.557Z,84
2017-04-21T04:56:15.401Z,84.7
2017-04-21T04:57:17.536Z,85
2017-04-21T04:58:19.343Z,85.6
2017-04-21T04:59:21.139Z,85.5
2017-04-21T05:00:23.282Z,85.5
2017-04-21T05:01:25.092Z,85.7
2017-04-21T05:02:26.897Z,85.4
2017-04-21T05:03:28.702Z,84.9
2017-04-21T05:04:30.508Z,84.7
2017-04-21T05:05:32.571Z,84.9
2017-04-21T05:06:34.633Z,84.7
2017-04-21T05:07:36.443Z,84.7
2017-04-21T05:08:38.259Z,84.9
2017-04-21T05:09:40.059Z,85.6
2017-04-21T05:10:41.861Z,85.7
2017-04-21T05:11:43.683Z,85.7
2017-04-21T05:12:45.480Z,85.6
2017-04-21T05:13:47.298Z,85.8
2017-04-21T05:14:49.441Z,85.9
2017-04-21T05:15:51.246Z,85.8
2017-04-21T05:16:53.398Z,85.6
2017-04-21T05:17:55.239Z,85.8
2017-04-21T05:18:57.045Z,85.9
2017-04-21T05:19:58.850Z,85.9
2017-04-21T05:21:00.654Z,86.2
2017-04-21T05:22:02.746Z,86.2
2017-04-21T05:23:04.600Z,86.6
2017-04-21T05:24:06.692Z,86.4
2017-04-21T05:25:23.735Z,86.7
2017-04-21T05:26:25.559Z,86.6
2017-04-21T05:27:27.366Z,86.7
2017-04-21T05:28:29.501Z,86.8
2017-04-21T05:29:31.331Z,86.8
2017-04-21T05:30:33.135Z,86.6
2017-04-21T05:31:35.005Z,86.6
2017-04-21T05:32:37.014Z,86.7
2017-04-21T05:33:38.821Z,86.9
2017-04-21T05:34:40.683Z,86.4
2017-04-21T05:35:42.537Z,86.6
2017-04-21T05:36:44.342Z,87.1
2017-04-21T05:37:46.188Z,87.6
2017-04-21T05:38:48.345Z,87.4
2017-04-21T05:39:50.423Z,87.3
2017-04-21T05:40:52.567Z,87.8
2017-04-21T05:41:54.445Z,87.5
2017-04-21T05:42:56.254Z,87.2
2017-04-21T05:43:58.483Z,87.1
2017-04-21T05:45:00.283Z,87.6
2017-04-21T05:46:02.090Z,87.5
2017-04-21T05:47:03.901Z,87.7
2017-04-21T05:48:05.700Z,87.1
2017-04-21T05:49:07.851Z,86.9
2017-04-21T05:50:10.022Z,86.7
2017-04-21T05:51:11.831Z,86.8
2017-04-21T05:52:13.632Z,87.3
2017-04-21T05:53:15.730Z,87.9
2017-04-21T05:54:17.578Z,87.5
2017-04-21T05:55:19.605Z,87.4
2017-04-21T05:56:21.654Z,87.7
2017-04-21T05:57:23.691Z,87.7
2017-04-21T05:58:25.558Z,88
2017-04-21T05:59:27.783Z,87.9
2017-04-21T06:00:29.585Z,88.2
2017-04-21T06:01:31.414Z,88.5
2017-04-21T06:02:33.235Z,88.4
2017-04-21T06:03:35.037Z,87.8
2017-04-21T06:04:36.836Z,88.3
2017-04-21T06:05:38.757Z,88.1
2017-04-21T06:06:40.944Z,88.3
2017-04-21T06:07:43.079Z,88.3
2017-04-21T06:08:45.570Z,88.5
2017-04-21T06:09:47.369Z,89.1
2017-04-21T06:10:49.175Z,88.6
2017-04-21T06:11:50.974Z,88.6
2017-04-21T06:12:52.775Z,88.8
2017-04-21T06:13:54.597Z,88.9
2017-04-21T06:14:56.410Z,89.4
2017-04-21T06:15:58.547Z,89.5
2017-04-21T06:17:00.370Z,89.5
2017-04-21T06:18:02.241Z,89.3
2017-04-21T06:19:04.041Z,89.3
2017-04-21T06:20:05.843Z,89.2
2017-04-21T06:21:07.639Z,88.9
2017-04-21T06:22:09.441Z,89.1
2017-04-21T06:23:11.241Z,89
2017-04-21T06:24:13.046Z,89.3
2017-04-21T06:25:14.838Z,89.7
2017-04-21T06:26:16.660Z,90.2
2017-04-21T06:27:18.469Z,90.5
2017-04-21T06:28:20.282Z,90.5
2017-04-21T06:29:22.160Z,89.8
2017-04-21T06:30:23.961Z,89.5
2017-04-21T06:31:26.100Z,89.8
2017-04-21T06:32:27.907Z,89.5
2017-04-21T06:33:29.708Z,89.1
2017-04-21T06:34:31.507Z,89.4
2017-04-21T06:35:33.305Z,89.9
2017-04-21T06:36:35.114Z,88.9
2017-04-21T06:37:36.917Z,89.3
2017-04-21T06:38:38.714Z,89.9
2017-04-21T06:39:40.525Z,89.5
2017-04-21T06:40:42.408Z,89.2
2017-04-21T06:41:44.209Z,89.9
2017-04-21T06:42:46.011Z,89.9
2017-04-21T06:43:47.813Z,90.8
2017-04-21T06:44:49.629Z,91.2
2017-04-21T06:45:51.437Z,91.3
2017-04-21T06:46:53.235Z,91.9
2017-04-21T06:47:55.040Z,91.5
2017-04-21T06:48:56.843Z,91.5
2017-04-21T06:49:58.646Z,91.7
2017-04-21T06:51:00.553Z,91.3
2017-04-21T06:52:02.350Z,91.6
2017-04-21T06:53:04.182Z,92
2017-04-21T06:54:05.987Z,91.5
2017-04-21T06:55:07.786Z,91.8
2017-04-21T06:56:09.587Z,92.2
2017-04-21T06:57:11.728Z,92.1
2017-04-21T06:58:13.879Z,92
2017-04-21T06:59:16.040Z,92.6
2017-04-21T07:00:17.837Z,92.2
2017-04-21T07:01:19.979Z,92.5
2017-04-21T07:02:22.116Z,92.2
2017-04-21T07:03:24.041Z,92.4
2017-04-21T07:04:25.840Z,92
2017-04-21T07:05:27.973Z,91.6
2017-04-21T07:06:29.804Z,91.9
2017-04-21T07:07:32.283Z,91.7
2017-04-21T07:08:34.084Z,92.3
2017-04-21T07:09:35.888Z,93.1
2017-04-21T07:10:37.693Z,93.5
2017-04-21T07:11:39.489Z,93.3
2017-04-21T07:12:41.293Z,92.7
2017-04-21T07:13:43.109Z,91.2
2017-04-21T07:14:45.318Z,91.1
2017-04-21T07:15:47.193Z,91.3
2017-04-21T07:16:49.395Z,91.4
2017-04-21T07:17:51.663Z,91.5
2017-04-21T07:18:53.952Z,90.9
2017-04-21T07:19:56.416Z,90.7
2017-04-21T07:20:58.662Z,91.5
2017-04-21T07:22:00.946Z,91.4
2017-04-21T07:23:03.105Z,91.3
2017-04-21T07:24:05.516Z,91.7
2017-04-21T07:25:07.585Z,91.8
2017-04-21T07:26:09.692Z,92.1
2017-04-21T07:27:12.101Z,92.6
2017-04-21T07:28:14.441Z,92.6
2017-04-21T07:29:16.586Z,92.2
2017-04-21T07:30:18.381Z,91.9
2017-04-21T07:31:20.180Z,92.7
2017-04-21T07:32:21.980Z,92.6
2017-04-21T07:33:23.780Z,92
2017-04-21T07:34:25.579Z,92.1
2017-04-21T07:35:27.731Z,92.4
2017-04-21T07:36:29.549Z,92.6
2017-04-21T07:37:31.348Z,92.6
2017-04-21T07:38:33.541Z,92.1
2017-04-21T07:39:35.339Z,92
2017-04-21T07:40:37.497Z,92
2017-04-21T07:42:41.245Z,91.3
2017-04-21T07:43:43.050Z,91.5
2017-04-21T07:44:45.194Z,90.4
2017-04-21T07:45:47.337Z,90.6
2017-04-21T07:46:49.138Z,89.8
2017-04-21T07:47:50.941Z,89.3
2017-04-21T07:48:52.745Z,89.9
2017-04-21T07:49:54.548Z,90
2017-04-21T07:50:56.368Z,90.7
2017-04-21T07:51:58.169Z,90.4
2017-04-21T07:52:59.969Z,90.5
2017-04-21T07:54:01.855Z,90.3
2017-04-21T07:55:03.714Z,90.2
2017-04-21T07:56:05.518Z,89.7
2017-04-21T07:57:07.320Z,89.7
2017-04-21T07:58:09.124Z,89.7
2017-04-21T07:59:10.947Z,89.1
2017-04-21T08:02:53.631Z,89.5
2017-04-21T08:03:55.431Z,88.7
2017-04-21T08:04:57.242Z,88.5
2017-04-21T08:05:59.047Z,88.2
2017-04-21T08:07:00.860Z,89.2
2017-04-21T08:08:02.661Z,88.8
2017-04-21T08:09:04.472Z,88.3
2017-04-21T08:10:06.787Z,88.9
2017-04-21T08:11:08.927Z,88.5
2017-04-21T08:12:10.735Z,88.1
2017-04-21T08:13:12.530Z,87.7
2017-04-21T08:14:14.331Z,87.6
2017-04-21T08:15:16.130Z,87.8
2017-04-21T08:16:17.961Z,88.3
2017-04-21T08:17:20.106Z,88.5
2017-04-21T08:18:21.907Z,89.9
2017-04-21T08:19:24.398Z,89.2
2017-04-21T08:20:26.543Z,88
2017-04-21T08:21:28.445Z,88.1
2017-04-21T08:22:30.245Z,88
2017-04-21T08:23:32.045Z,87.5
2017-04-21T08:24:33.854Z,87.5
2017-04-21T08:25:35.658Z,88.5
2017-04-21T08:26:37.795Z,88
2017-04-21T08:27:39.596Z,87.9
2017-04-21T08:28:41.401Z,86.9
2017-04-21T08:29:43.208Z,87.5
2017-04-21T08:30:45.055Z,87.1
2017-04-21T08:31:47.146Z,86.6
2017-04-21T08:32:49.202Z,86.8
2017-04-21T08:33:51.010Z,87.2
2017-04-21T08:34:52.817Z,87.2
2017-04-21T08:35:54.616Z,86.2
2017-04-21T08:36:56.422Z,85.9
2017-04-21T08:37:58.577Z,86.1
2017-04-21T08:39:00.379Z,85.6
2017-04-21T08:40:02.182Z,85.9
2017-04-21T08:41:03.985Z,85.7
2017-04-21T08:42:06.134Z,87
2017-04-21T08:43:07.935Z,86.9
2017-04-21T08:44:09.740Z,86.6
2017-04-21T08:45:11.540Z,86.2
2017-04-21T08:46:13.355Z,85.6
2017-04-21T08:47:15.162Z,84.8
2017-04-21T08:48:16.964Z,84.9
2017-04-21T08:49:19.115Z,84.7
2017-04-21T08:50:21.258Z,83.6
2017-04-21T08:51:23.067Z,84.2
2017-04-21T08:52:24.876Z,83.3
2017-04-21T08:53:26.782Z,83.5
2017-04-21T08:54:28.713Z,84
2017-04-21T08:55:30.520Z,85.3
2017-04-21T08:56:32.321Z,85.2
2017-04-21T08:57:34.132Z,84.7
2017-04-21T08:58:35.935Z,84.2
2017-04-21T08:59:37.740Z,84.5
2017-04-21T09:00:39.542Z,83.8
2017-04-21T09:01:41.362Z,83.5
2017-04-21T09:02:43.169Z,83.2
2017-04-21T09:03:44.969Z,83
2017-04-21T09:04:46.995Z,83
2017-04-21T09:05:48.805Z,83
2017-04-21T09:06:50.617Z,83.1
2017-04-21T09:07:52.423Z,83.2
2017-04-21T09:08:54.230Z,83
2017-04-21T09:09:56.036Z,81.9
2017-04-21T09:10:57.843Z,81.8
2017-04-21T09:12:00.343Z,82.6
2017-04-21T09:13:02.150Z,82.6
2017-04-21T09:14:04.295Z,82.3
2017-04-21T09:15:06.435Z,82.2
2017-04-21T09:16:08.405Z,81.6
2017-04-21T09:17:10.211Z,81.5
2017-04-21T09:18:12.019Z,82.1
2017-04-21T09:19:13.830Z,81.8
2017-04-21T09:20:15.637Z,81.1
2017-04-21T09:21:17.439Z,81.2
2017-04-21T09:22:19.239Z,81.5
2017-04-21T09:23:21.050Z,80.9
2017-04-21T09:24:22.856Z,80.3
2017-04-21T09:25:24.661Z,79.7
2017-04-21T09:26:26.475Z,80.2
2017-04-21T09:27:28.491Z,80.2
2017-04-21T09:28:30.566Z,80
2017-04-21T09:29:32.370Z,79.4
2017-04-21T09:32:38.714Z,78.8
2017-04-21T09:34:34.272Z,78.2
2017-04-21T09:36:36.286Z,78.2
2017-04-21T09:37:49.679Z,78.4
2017-04-21T09:38:54.859Z,78.1
2017-04-21T09:39:56.717Z,77.6
2017-04-21T09:40:58.531Z,77.1
2017-04-21T09:42:41.697Z,77.9
2017-04-21T09:44:00.871Z,78
2017-04-21T09:45:02.681Z,78
2017-04-21T09:46:04.482Z,77.1
2017-04-21T09:47:06.288Z,77.6
2017-04-21T09:48:08.092Z,77.1
2017-04-21T09:49:09.908Z,76.9
2017-04-21T09:50:54.393Z,77.8
2017-04-21T10:00:33.926Z,78.2
2017-04-21T10:08:33.923Z,77.7
2017-04-21T10:10:00.074Z,78.1
2017-04-21T10:11:01.882Z,78.7
2017-04-21T10:12:04.028Z,77.7
2017-04-21T10:13:05.839Z,77.3
2017-04-21T10:14:08.097Z,78.4
2017-04-21T10:15:09.950Z,78.2
2017-04-21T10:16:11.920Z,78.4
2017-04-21T10:17:13.719Z,78.6
2017-04-21T10:18:15.528Z,77.7
2017-04-21T10:19:17.334Z,77.7
2017-04-21T10:20:19.478Z,77.7
2017-04-21T10:21:21.291Z,77.8
2017-04-21T10:22:23.095Z,78.7
2017-04-21T10:23:24.906Z,78.2
2017-04-21T10:24:27.050Z,77.5
2017-04-21T10:25:28.858Z,77.6
2017-04-21T10:26:30.661Z,77.4
2017-04-21T10:27:32.479Z,77.4
2017-04-21T10:28:34.530Z,76.8
2017-04-21T10:29:36.685Z,76.5
2017-04-21T10:30:38.501Z,76.8
2017-04-21T10:31:40.322Z,76.7
2017-04-21T10:32:42.130Z,77
2017-04-21T10:33:43.937Z,76.7
2017-04-21T10:34:45.745Z,76.9
2017-04-21T10:35:47.551Z,77.2
2017-04-21T10:36:49.361Z,77.2
2017-04-21T10:37:51.168Z,77.4
2017-04-21T10:38:52.967Z,77.1
2017-04-21T10:39:54.805Z,76.7
2017-04-21T10:40:56.657Z,75.8
2017-04-21T10:41:58.800Z,75.8
2017-04-21T10:43:00.606Z,75.1
2017-04-21T10:44:02.411Z,75.6
2017-04-21T10:45:04.223Z,75.4
2017-04-21T10:46:06.024Z,75
2017-04-21T10:47:07.839Z,74.8
2017-04-21T10:48:09.644Z,74.6
2017-04-21T10:49:11.451Z,74.2
2017-04-21T10:50:13.262Z,74.3
2017-04-21T10:51:15.068Z,74.3
2017-04-21T10:52:16.920Z,74.3
2017-04-21T10:53:18.830Z,75.4
2017-04-21T10:54:20.646Z,75.4
2017-04-21T10:55:22.452Z,75.5
2017-04-21T10:56:24.271Z,75.6
2017-04-21T10:57:26.085Z,75.2
2017-04-21T10:58:27.892Z,74.4
2017-04-21T10:59:29.708Z,74.5
2017-04-21T11:00:31.516Z,74.2
2017-04-21T11:01:33.321Z,74.4
2017-04-21T11:02:35.465Z,74.1
2017-04-21T11:03:37.270Z,74.1
2017-04-21T11:04:39.265Z,74.1
2017-04-21T11:05:41.148Z,74.1
2017-04-21T11:06:42.956Z,74
2017-04-21T11:07:44.763Z,73.5
2017-04-21T11:08:46.576Z,73.4
2017-04-21T11:09:48.384Z,72.9
2017-04-21T11:10:50.192Z,71.9
2017-04-21T11:11:52.001Z,71.6
2017-04-21T11:12:53.809Z,71.7
2017-04-21T11:13:55.960Z,71.9
2017-04-21T11:14:57.772Z,71.7
2017-04-21T11:15:59.585Z,71.1
2017-04-21T11:17:01.537Z,71.4
2017-04-21T11:18:03.422Z,70.8
2017-04-21T11:19:05.232Z,69.3
2017-04-21T11:20:07.031Z,69
2017-04-21T11:21:08.842Z,69.1
2017-04-21T11:22:10.646Z,69.3
2017-04-21T11:23:12.464Z,70.3
2017-04-21T11:24:14.276Z,70.2
2017-04-21T11:25:16.081Z,70.7
2017-04-21T11:26:17.894Z,70.5
2017-04-21T11:27:19.699Z,70.8
2017-04-21T11:28:21.559Z,70.7
2017-04-21T11:29:23.366Z,70.5
2017-04-21T11:30:25.174Z,71.2
2017-04-21T11:31:26.983Z,71.5
2017-04-21T11:32:28.794Z,71.9
2017-04-21T11:33:30.607Z,71.6
2017-04-21T11:34:32.768Z,71.3
2017-04-21T11:35:34.576Z,71.5
2017-04-21T11:36:36.725Z,71.5
2017-04-21T11:37:38.535Z,71.4
2017-04-21T11:38:40.353Z,71.7
2017-04-21T11:39:42.164Z,71.4
2017-04-21T11:40:44.088Z,71.7
2017-04-21T11:41:45.903Z,72.2
2017-04-21T11:42:47.717Z,71.8
2017-04-21T11:43:49.539Z,72.1
2017-04-21T11:44:51.685Z,71.4
2017-04-21T11:45:53.494Z,71.4
2017-04-21T11:46:55.302Z,71.7
2017-04-21T11:47:57.107Z,71.8
2017-04-21T11:48:58.914Z,71
2017-04-21T11:50:00.726Z,71.5
2017-04-21T11:51:02.533Z,71.2
2017-04-21T11:52:04.680Z,70.9
2017-04-21T11:53:06.540Z,70.5
2017-04-21T11:54:08.345Z,70.3
2017-04-21T11:55:10.154Z,69.7
2017-04-21T11:56:11.963Z,70.3
2017-04-21T11:57:13.772Z,70
2017-04-21T11:58:15.579Z,70
2017-04-21T11:59:17.391Z,70.2
2017-04-21T12:00:19.202Z,69.6
2017-04-21T12:01:21.006Z,69.4
2017-04-21T12:02:22.822Z,69.5
2017-04-21T12:03:24.626Z,70.9
2017-04-21T12:04:26.491Z,70.2
2017-04-21T12:05:28.368Z,69.7
2017-04-21T12:06:30.174Z,70
2017-04-21T12:07:31.981Z,70.5
2017-04-21T12:08:33.787Z,70.2
2017-04-21T12:09:36.108Z,70.1
2017-04-21T12:10:37.924Z,70.3
2017-04-21T12:11:39.732Z,70.1
2017-04-21T12:12:41.555Z,69.5
2017-04-21T12:13:43.366Z,69.7
2017-04-21T12:14:45.178Z,70.1
2017-04-21T12:15:46.990Z,70.1
2017-04-21T12:16:48.805Z,70.7
2017-04-21T12:17:50.611Z,70.5
2017-04-21T12:18:52.426Z,70.1
2017-04-21T12:19:54.235Z,70.5
2017-04-21T12:20:56.040Z,70.2
2017-04-21T12:21:57.850Z,70.3
2017-04-21T12:23:00.014Z,69.9
2017-04-21T12:24:01.821Z,69.8
2017-04-21T12:25:03.628Z,70.2
2017-04-21T12:26:05.441Z,70.7
2017-04-21T12:27:07.246Z,70.4
2017-04-21T12:28:09.056Z,70.3
2017-04-21T12:29:11.320Z,70
2017-04-21T12:30:13.123Z,69.9
2017-04-21T12:31:14.935Z,69.2
2017-04-21T12:32:17.082Z,69
2017-04-21T12:33:18.893Z,69.3
2017-04-21T12:34:20.699Z,69.1
2017-04-21T12:35:22.844Z,69.1
2017-04-21T12:36:24.654Z,69.3
2017-04-21T12:37:26.462Z,69.3
2017-04-21T12:38:28.278Z,69.2
2017-04-21T12:39:30.087Z,69.3
2017-04-21T12:40:31.900Z,68.3
2017-04-21T12:41:33.753Z,68.1
2017-04-21T12:42:35.559Z,68.1
2017-04-21T12:43:37.369Z,68
2017-04-21T12:44:39.177Z,67.4
2017-04-21T12:45:40.991Z,67.1
2017-04-21T12:46:42.797Z,67.8
2017-04-21T12:47:44.604Z,67.9
2017-04-21T12:48:46.416Z,67.7
2017-04-21T12:49:48.483Z,68
2017-04-21T12:50:50.959Z,67.9
2017-04-21T12:51:53.410Z,67.6
2017-04-21T12:52:56.647Z,67.3
2017-04-21T12:53:59.203Z,67.1
2017-04-21T12:55:01.255Z,67.2
2017-04-21T12:56:03.336Z,67.8
2017-04-21T12:57:05.534Z,67.8
2017-04-21T12:58:07.530Z,68.3
2017-04-21T12:59:09.638Z,68.2
2017-04-21T13:00:11.996Z,68.5
2017-04-21T13:01:14.241Z,67.9
2017-04-21T13:02:16.301Z,67.9
2017-04-21T13:03:18.738Z,67.8
2017-04-21T13:04:21.098Z,67.2
2017-04-21T13:05:23.277Z,67.2
2017-04-21T13:06:25.319Z,67.9
2017-04-21T13:07:27.365Z,68.3
2017-04-21T13:08:29.485Z,68.5
2017-04-21T13:09:31.514Z,68.3
2017-04-21T13:10:33.588Z,68
2017-04-21T13:11:35.683Z,68.5
2017-04-21T13:12:38.124Z,68.5
2017-04-21T13:13:40.140Z,68.9
2017-04-21T13:14:42.535Z,68.9
2017-04-21T13:15:44.976Z,69.1
2017-04-21T13:16:47.099Z,69
2017-04-21T13:17:49.134Z,69
2017-04-21T13:18:51.686Z,69.8
2017-04-21T13:19:53.779Z,69.9
2017-04-21T13:20:55.808Z,69.8
2017-04-21T13:21:57.807Z,70.3
2017-04-21T13:23:00.130Z,70.4
2017-04-21T13:24:02.214Z,70.9
2017-04-21T13:25:04.532Z,71.3
2017-04-21T13:26:06.493Z,71.9
2017-04-21T13:27:08.399Z,72.1
2017-04-21T13:28:10.466Z,73
2017-04-21T13:29:12.562Z,73.5
2017-04-21T13:30:14.748Z,73.8
2017-04-21T13:31:16.558Z,74
2017-04-21T13:32:18.768Z,74.7
2017-04-21T13:33:20.574Z,74.7
2017-04-21T13:34:22.419Z,75.1
2017-04-21T13:35:24.904Z,75.4
2017-04-21T13:36:26.747Z,75.3
2017-04-21T13:37:28.557Z,75.3
2017-04-21T13:38:30.715Z,75.1
2017-04-21T13:39:32.522Z,75.6
2017-04-21T13:40:34.370Z,75.2
2017-04-21T13:41:36.184Z,75.7
2017-04-21T13:42:38.331Z,76.4
2017-04-21T13:43:40.486Z,75.6
2017-04-21T13:44:42.308Z,75.7
2017-04-21T13:45:44.118Z,76.7
2017-04-21T13:46:45.932Z,78
2017-04-21T13:47:47.783Z,78.6
2017-04-21T13:48:49.938Z,80.1
2017-04-21T13:49:51.757Z,80.4
2017-04-21T13:50:53.852Z,81.8
2017-04-21T13:51:56.186Z,82.8
2017-04-21T13:52:58.653Z,83.1
2017-04-21T13:54:00.467Z,83.3
2017-04-21T13:55:02.287Z,83.1
2017-04-21T13:56:04.097Z,83.5
2017-04-21T13:57:05.900Z,83.4
2017-04-21T13:58:07.708Z,83.7
2017-04-21T13:59:09.522Z,84.1
2017-04-21T14:00:11.372Z,84.6
2017-04-21T14:01:13.731Z,85.5
2017-04-21T14:02:16.445Z,85.7
2017-04-21T14:03:18.681Z,87.1
2017-04-21T14:04:20.491Z,86.8
2017-04-21T14:05:22.590Z,87.7
2017-04-21T14:06:24.776Z,87.3
2017-04-21T14:07:26.965Z,87.4
2017-04-21T14:08:28.787Z,87.1
2017-04-21T14:09:30.589Z,86.9
2017-04-21T14:10:32.401Z,87.1
2017-04-21T14:11:34.207Z,87.3
2017-04-21T14:12:36.026Z,86.9
2017-04-21T14:13:38.001Z,88.9
2017-04-21T14:14:39.802Z,88
2017-04-21T14:15:41.628Z,87.7
2017-04-21T14:16:43.507Z,87.3